createdAt,value
2022-12-19T05:15:18.289Z,97832.38
2022-12-19T05:17:20.930Z,97829.66
2022-12-19T05:19:23.724Z,97828.47
2022-12-19T05:21:26.557Z,97833.91
2022-12-19T05:23:29.980Z,97823.84
2022-12-19T05:25:32.697Z,97825.31
2022-12-19T05:27:35.368Z,97815.69
2022-12-19T05:29:38.014Z,97815.13
2022-12-19T05:31:42.529Z,97808.41
2022-12-19T05:33:45.827Z,97811.44
2022-12-19T05:35:49.339Z,97805.56
2022-12-19T05:37:52.399Z,97815.66
2022-12-19T05:39:55.080Z,97810.06
2022-12-19T05:41:57.833Z,97813.38
2022-12-19T05:44:01.592Z,97811.41
2022-12-19T05:46:06.124Z,97810.28
2022-12-19T05:48:10.249Z,97813.78
2022-12-19T05:50:13.217Z,97809.44
2022-12-19T05:52:16.024Z,97819.88
2022-12-19T05:54:18.792Z,97820.69
2022-12-19T05:56:23.200Z,97818.88
2022-12-19T05:58:25.915Z,97818.06
2022-12-19T06:00:28.792Z,97814.44
2022-12-19T06:02:34.460Z,97806.53
2022-12-19T06:04:38.628Z,97810.81
2022-12-19T06:06:41.438Z,97807.53
2022-12-19T06:08:45.023Z,97812.91
2022-12-19T06:10:47.832Z,97812.09
2022-12-19T06:12:50.510Z,97814.59
2022-12-19T06:14:53.235Z,97819.69
2022-12-19T06:16:55.921Z,97828.28
2022-12-19T06:18:58.882Z,97815.09
2022-12-19T06:21:06.507Z,97811.50
2022-12-19T06:23:09.183Z,97818.41
2022-12-19T06:25:13.628Z,97805.25
2022-12-19T06:27:16.311Z,97813.16
2022-12-19T06:29:19.138Z,97808.84
2022-12-19T06:31:23.697Z,97819.41
2022-12-19T06:33:28.308Z,97815.94
2022-12-19T06:35:31.031Z,97813.16
2022-12-19T06:37:38.943Z,97810.50
2022-12-19T06:39:44.229Z,97812.31
2022-12-19T06:42:04.676Z,97814.78
2022-12-19T06:44:09.442Z,97807.06
2022-12-19T06:46:12.964Z,97811.50
2022-12-19T06:48:15.704Z,97810.50
2022-12-19T06:50:18.593Z,97806.22
2022-12-19T06:52:22.270Z,97801.78
2022-12-19T06:54:26.483Z,97802.78
2022-12-19T06:56:29.365Z,97796.53
2022-12-19T06:58:32.002Z,97797.34
2022-12-19T07:00:37.043Z,97795.69
2022-12-19T07:02:41.034Z,97795.69
2022-12-19T07:04:48.710Z,97803.59
2022-12-19T07:06:51.455Z,97805.41
2022-12-19T07:08:54.569Z,97814.28
2022-12-19T07:10:59.249Z,97813.47
2022-12-19T07:13:02.275Z,97805.56
2022-12-19T07:15:06.015Z,97799.31
2022-12-19T07:17:08.880Z,97804.41
2022-12-19T07:19:11.900Z,97810.50
2022-12-19T07:21:14.703Z,97816.59
2022-12-19T07:23:22.080Z,97825.47
2022-12-19T07:25:25.093Z,97819.25
2022-12-19T07:27:35.415Z,97820.06
2022-12-19T07:29:38.476Z,97818.09
2022-12-19T07:31:41.325Z,97815.63
2022-12-19T07:33:44.005Z,97818.09
2022-12-19T07:35:47.056Z,97818.25
2022-12-19T07:37:50.476Z,97823.38
2022-12-19T07:39:53.203Z,97823.38
2022-12-19T07:41:55.913Z,97826.97
2022-12-19T07:43:59.942Z,97825.03
2022-12-19T07:46:04.827Z,97827.66
2022-12-19T07:48:09.037Z,97831.09
2022-12-19T07:50:18.519Z,97837.22
2022-12-19T07:52:21.399Z,97833.63
2022-12-19T07:54:24.121Z,97840.53
2022-12-19T07:56:27.001Z,97838.72
2022-12-19T07:58:31.561Z,97848.13
2022-12-19T08:00:35.659Z,97842.88
2022-12-19T08:02:38.588Z,97841.88
2022-12-19T08:04:41.531Z,97844.50
2022-12-19T08:06:44.773Z,97840.91
2022-12-19T08:08:47.560Z,97838.94
2022-12-19T08:10:50.235Z,97850.28
2022-12-19T08:12:53.106Z,97846.69
2022-12-19T08:14:57.406Z,97842.28
2022-12-19T08:17:20.119Z,97844.59
2022-12-19T08:19:27.250Z,97841.63
2022-12-19T08:21:30.573Z,97842.31
2022-12-19T08:23:34.240Z,97844.63
2022-12-19T08:25:38.862Z,97841.88
2022-12-19T08:27:46.439Z,97835.63
2022-12-19T08:29:49.135Z,97850.44
2022-12-19T08:31:52.447Z,97849.31
2022-12-19T08:33:58.301Z,97850.00
2022-12-19T08:36:05.125Z,97852.31
2022-12-19T08:38:07.928Z,97842.75
2022-12-19T08:40:11.319Z,97846.78
2022-12-19T08:42:14.033Z,97844.81
2022-12-19T08:44:17.199Z,97841.34
2022-12-19T08:46:21.116Z,97844.13
2022-12-19T08:48:24.788Z,97860.63
2022-12-19T08:50:28.854Z,97857.97
2022-12-19T08:52:31.611Z,97853.53
2022-12-19T08:54:34.281Z,97852.72
2022-12-19T08:56:37.319Z,97850.91
2022-12-19T08:58:46.236Z,97853.38
2022-12-19T09:00:54.740Z,97855.03
2022-12-19T09:03:00.015Z,97851.41
2022-12-19T09:06:03.956Z,97857.22
2022-12-19T09:07:27.025Z,97853.59
2022-12-19T09:09:30.234Z,97859.69
2022-12-19T09:11:32.923Z,97846.53
2022-12-19T09:13:40.757Z,97850.81
2022-12-19T09:15:43.440Z,97855.09
2022-12-19T09:17:46.109Z,97849.81
2022-12-19T09:19:49.667Z,97854.28
2022-12-19T09:21:52.509Z,97858.72
2022-12-19T09:24:05.266Z,97861.84
2022-12-19T09:26:12.513Z,97859.06
2022-12-19T09:28:27.423Z,97864.19
2022-12-19T09:30:30.941Z,97863.06
2022-12-19T09:32:34.705Z,97863.06
2022-12-19T09:34:39.152Z,97870.97
2022-12-19T09:36:42.175Z,97878.56
2022-12-19T09:38:48.377Z,97872.97
2022-12-19T09:41:07.382Z,97876.59
2022-12-19T09:43:19.544Z,97864.09
2022-12-19T09:45:48.292Z,97859.63
2022-12-19T09:47:51.221Z,97864.09
2022-12-19T09:49:55.076Z,97872.00
2022-12-19T09:52:09.314Z,97870.84
2022-12-19T09:54:17.580Z,97874.03
2022-12-19T09:56:23.325Z,97871.38
2022-12-19T09:58:33.429Z,97866.09
2022-12-19T10:00:40.837Z,97869.41
2022-12-19T10:02:48.593Z,97867.28
2022-12-19T10:05:09.180Z,97862.00
2022-12-19T10:07:53.030Z,97870.75
2022-12-19T10:12:33.436Z,97869.91
2022-12-19T10:12:43.074Z,97867.94
2022-12-19T10:14:48.333Z,97853.66
2022-12-19T10:17:23.765Z,97847.56
2022-12-19T10:19:34.847Z,97844.75
2022-12-19T10:22:16.514Z,97841.78
2022-12-19T10:24:20.995Z,97848.06
2022-12-19T10:26:30.866Z,97847.91
2022-12-19T10:28:53.781Z,97836.34
2022-12-19T10:31:18.856Z,97839.97
2022-12-19T10:33:30.925Z,97838.84
2022-12-19T10:35:35.725Z,97836.88
2022-12-19T10:37:49.352Z,97835.91
2022-12-19T10:40:00.819Z,97824.53
2022-12-19T10:42:12.231Z,97834.91
2022-12-19T10:44:16.855Z,97833.09
2022-12-19T10:46:26.398Z,97837.41
2022-12-19T10:48:31.530Z,97832.94
2022-12-19T10:50:34.558Z,97835.41
2022-12-19T10:52:52.132Z,97828.34
2022-12-19T10:54:57.867Z,97829.66
2022-12-19T10:57:19.581Z,97820.09
2022-12-19T10:59:23.853Z,97825.06
2022-12-19T11:01:28.238Z,97820.47
2022-12-19T11:03:31.929Z,97826.56
2022-12-19T11:05:44.433Z,97832.66
2022-12-19T11:08:03.895Z,97831.00
2022-12-19T11:11:18.261Z,97827.38
2022-12-19T11:17:08.095Z,97836.13
2022-12-19T11:20:27.031Z,97828.38
2022-12-19T11:24:53.513Z,97823.09
2022-12-19T11:29:30.829Z,97803.31
2022-12-19T11:29:34.036Z,97822.28
2022-12-19T11:29:41.074Z,97807.28
2022-12-19T11:30:41.630Z,97807.94
2022-12-19T11:32:40.551Z,97803.97
2022-12-19T11:34:51.699Z,97801.06
2022-12-19T11:37:01.605Z,97793.78
2022-12-19T11:39:05.375Z,97790.00
2022-12-19T11:41:15.802Z,97784.56
2022-12-19T11:43:44.034Z,97793.97
2022-12-19T11:45:52.723Z,97789.22
2022-12-19T11:48:01.590Z,97782.13
2022-12-19T11:50:15.572Z,97789.72
2022-12-19T11:55:01.472Z,97782.28
2022-12-19T11:57:04.456Z,97783.81
2022-12-19T11:59:14.635Z,97783.81
2022-12-19T12:01:31.731Z,97788.91
2022-12-19T12:04:03.219Z,97785.13
2022-12-19T12:06:12.893Z,97786.94
2022-12-19T12:13:04.716Z,97783.81
2022-12-19T12:13:14.858Z,97792.53
2022-12-19T12:19:33.869Z,97775.72
2022-12-19T12:21:15.846Z,97785.44
2022-12-19T12:31:17.244Z,97780.00
2022-12-19T12:31:20.666Z,97782.63
2022-12-19T12:31:40.924Z,97774.38
2022-12-19T12:31:41.758Z,97768.78
2022-12-19T12:31:41.881Z,97779.66
2022-12-19T12:35:32.823Z,97770.75
2022-12-19T12:39:18.312Z,97771.56
2022-12-19T12:42:00.050Z,97765.31
2022-12-19T12:44:10.732Z,97769.44
2022-12-19T12:46:16.886Z,97756.25
2022-12-19T12:48:26.160Z,97751.28
2022-12-19T12:50:31.267Z,97754.59
2022-12-19T12:52:42.158Z,97761.53
2022-12-19T12:54:47.436Z,97757.91
2022-12-19T12:56:50.497Z,97755.91
2022-12-19T12:59:22.454Z,97749.47
2022-12-19T13:01:34.670Z,97743.38
2022-12-19T13:03:37.669Z,97744.19
2022-12-19T13:05:53.543Z,97746.69
2022-12-19T13:07:57.599Z,97737.94
2022-12-19T13:10:17.445Z,97737.94
2022-12-19T13:12:42.999Z,97738.63
2022-12-19T13:14:49.897Z,97730.53
2022-12-19T13:16:54.853Z,97720.63
2022-12-19T13:19:05.317Z,97724.09
2022-12-19T13:21:10.594Z,97733.66
2022-12-19T13:23:34.991Z,97738.78
2022-12-19T13:25:53.014Z,97735.13
2022-12-19T13:27:58.419Z,97740.25
2022-12-19T13:30:20.838Z,97733.84
2022-12-19T13:32:24.812Z,97734.66
2022-12-19T13:34:36.815Z,97735.31
2022-12-19T13:39:55.428Z,97733.16
2022-12-19T13:39:59.499Z,97727.41
2022-12-19T13:42:09.671Z,97734.81
2022-12-19T13:44:12.998Z,97728.53
2022-12-19T13:46:41.431Z,97725.72
2022-12-19T13:48:47.544Z,97725.44
2022-12-19T13:50:50.518Z,97724.28
2022-12-19T13:52:53.893Z,97725.25
2022-12-19T13:55:00.236Z,97725.91
2022-12-19T13:57:09.366Z,97730.19
2022-12-19T13:59:13.059Z,97736.13
2022-12-19T14:01:21.601Z,97730.69
2022-12-19T14:03:35.776Z,97729.69
2022-12-19T14:06:16.536Z,97746.53
2022-12-19T14:08:06.220Z,97741.13
2022-12-19T14:11:33.652Z,97744.41
2022-12-19T14:13:56.736Z,97748.69
2022-12-19T14:15:29.653Z,97763.56
2022-12-19T14:17:33.215Z,97753.81
2022-12-19T14:19:41.956Z,97754.47
2022-12-19T14:22:03.939Z,97743.72
2022-12-19T14:24:12.481Z,97725.91
2022-12-19T14:28:21.569Z,97734.63
2022-12-19T14:28:55.047Z,97733.81
2022-12-19T14:31:01.175Z,97724.06
2022-12-19T14:33:47.188Z,97734.50
2022-12-19T14:36:12.420Z,97735.31
2022-12-19T14:39:01.286Z,97731.53
2022-12-19T14:40:27.657Z,97741.75
2022-12-19T14:43:57.100Z,97742.41
2022-12-19T14:53:51.109Z,97736.94
2022-12-19T14:53:51.615Z,97737.94
2022-12-19T14:54:15.424Z,97742.41
2022-12-19T14:54:29.758Z,97749.66
2022-12-19T14:56:16.053Z,97728.72
2022-12-19T14:58:54.021Z,97728.06
2022-12-19T15:01:09.286Z,97737.78
2022-12-19T15:03:15.483Z,97734.16
2022-12-19T15:05:21.007Z,97736.16
2022-12-19T15:07:27.125Z,97737.63
2022-12-19T15:11:03.348Z,97728.06
2022-12-19T15:14:49.312Z,97730.69
2022-12-19T15:14:54.847Z,97725.59
2022-12-19T15:17:04.002Z,97736.97
2022-12-19T15:19:12.872Z,97741.44
2022-12-19T15:21:15.929Z,97742.25
2022-12-19T15:23:22.400Z,97731.84
2022-12-19T15:26:02.310Z,97740.59
2022-12-19T15:27:48.645Z,97730.88
2022-12-19T15:29:53.312Z,97734.50
2022-12-19T15:31:56.052Z,97732.84
2022-12-19T15:34:33.179Z,97734.63
2022-12-19T15:36:22.332Z,97726.88
2022-12-19T15:38:24.941Z,97724.25
2022-12-19T15:40:29.783Z,97725.06
2022-12-19T15:42:32.620Z,97724.25
2022-12-19T15:44:37.682Z,97725.25
2022-12-19T15:46:48.309Z,97726.22
2022-12-19T15:48:52.272Z,97725.59
2022-12-19T15:50:55.015Z,97740.59
2022-12-19T15:53:00.189Z,97747.69
2022-12-19T15:55:02.938Z,97754.63
2022-12-19T15:57:06.264Z,97754.81
2022-12-19T15:59:22.065Z,97747.69
2022-12-19T16:01:43.201Z,97740.78
2022-12-19T16:03:47.585Z,97739.13
2022-12-19T16:05:50.500Z,97740.78
2022-12-19T16:07:53.806Z,97745.22
2022-12-19T16:09:56.486Z,97738.13
2022-12-19T16:11:59.735Z,97734.84
2022-12-19T16:14:02.578Z,97729.69
2022-12-19T16:16:13.016Z,97726.09
2022-12-19T16:18:19.071Z,97727.75
2022-12-19T16:20:25.345Z,97723.28
2022-12-19T16:22:30.256Z,97724.94
2022-12-19T16:24:33.101Z,97721.47
2022-12-19T16:26:38.582Z,97724.94
2022-12-19T16:28:41.361Z,97714.38
2022-12-19T16:30:44.688Z,97700.50
2022-12-19T16:32:47.878Z,97702.16
2022-12-19T16:34:50.813Z,97702.97
2022-12-19T16:36:55.022Z,97704.78
2022-12-19T16:38:57.731Z,97702.97
2022-12-19T16:41:01.503Z,97699.34
2022-12-19T16:43:06.754Z,97698.50
2022-12-19T16:45:17.618Z,97693.22
2022-12-19T16:47:20.923Z,97693.22
2022-12-19T16:49:24.190Z,97700.97
2022-12-19T16:51:28.634Z,97698.34
2022-12-19T16:53:32.645Z,97702.81
2022-12-19T16:55:35.427Z,97693.88
2022-12-19T16:57:38.166Z,97685.97
2022-12-19T16:59:41.187Z,97682.31
2022-12-19T17:01:45.175Z,97679.69
2022-12-19T17:03:48.314Z,97692.25
2022-12-19T17:05:50.986Z,97696.53
2022-12-19T17:07:54.634Z,97699.16
2022-12-19T17:09:58.693Z,97697.34
2022-12-19T17:12:03.021Z,97700.00
2022-12-19T17:14:11.665Z,97696.34
2022-12-19T17:16:14.454Z,97698.00
2022-12-19T17:18:23.151Z,97701.28
2022-12-19T17:20:28.696Z,97691.56
2022-12-19T17:22:31.402Z,97692.25
2022-12-19T17:24:34.148Z,97693.88
2022-12-19T17:26:38.182Z,97690.41
2022-12-19T17:28:41.334Z,97692.25
2022-12-19T17:30:47.496Z,97691.25
2022-12-19T17:32:53.663Z,97684.13
2022-12-19T17:34:56.325Z,97683.97
2022-12-19T17:36:59.898Z,97687.59
2022-12-19T17:39:02.710Z,97684.97
2022-12-19T17:41:05.608Z,97684.44
2022-12-19T17:43:11.123Z,97683.31
2022-12-19T17:45:14.552Z,97684.97
2022-12-19T17:47:20.024Z,97682.31
2022-12-19T17:49:28.032Z,97679.69
2022-12-19T17:51:30.871Z,97685.78
2022-12-19T17:53:33.528Z,97678.69
2022-12-19T17:55:36.193Z,97688.44
2022-12-19T17:57:38.863Z,97687.78
2022-12-19T17:59:42.973Z,97690.25
2022-12-19T18:01:47.275Z,97686.13
2022-12-19T18:03:52.114Z,97677.38
2022-12-19T18:05:56.414Z,97684.44
2022-12-19T18:07:59.155Z,97686.28
2022-12-19T18:10:01.902Z,97688.25
2022-12-19T18:12:04.818Z,97681.66
2022-12-19T18:14:07.561Z,97686.97
2022-12-19T18:16:14.470Z,97697.34
2022-12-19T18:18:23.608Z,97692.25
2022-12-19T18:20:31.968Z,97684.97
2022-12-19T18:22:36.069Z,97683.97
2022-12-19T18:24:38.729Z,97684.13
2022-12-19T18:26:41.357Z,97684.97
2022-12-19T18:28:44.397Z,97684.78
2022-12-19T18:30:47.966Z,97676.69
2022-12-19T18:32:56.732Z,97679.34
2022-12-19T18:34:59.432Z,97670.59
2022-12-19T18:37:05.302Z,97667.78
2022-12-19T18:39:23.184Z,97674.88
2022-12-19T18:41:27.389Z,97689.91
2022-12-19T18:43:31.058Z,97679.34
2022-12-19T18:45:37.591Z,97680.16
2022-12-19T18:47:40.507Z,97674.53
2022-12-19T18:49:44.584Z,97677.19
2022-12-19T18:51:47.648Z,97670.41
2022-12-19T18:53:51.043Z,97677.34
2022-12-19T18:55:54.062Z,97670.25
2022-12-19T18:57:57.124Z,97674.72
2022-12-19T19:00:00.376Z,97672.41
2022-12-19T19:02:04.896Z,97669.59
2022-12-19T19:04:08.812Z,97680.00
2022-12-19T19:06:20.218Z,97677.34
2022-12-19T19:08:25.248Z,97672.06
2022-12-19T19:10:30.525Z,97662.50
2022-12-19T19:12:33.257Z,97667.59
2022-12-19T19:14:39.294Z,97670.06
2022-12-19T19:16:42.833Z,97656.72
2022-12-19T19:18:49.658Z,97665.13
2022-12-19T19:21:00.670Z,97662.31
2022-12-19T19:23:08.447Z,97658.69
2022-12-19T19:25:12.050Z,97663.97
2022-12-19T19:27:14.758Z,97659.50
2022-12-19T19:29:18.935Z,97649.09
2022-12-19T19:31:24.401Z,97648.13
2022-12-19T19:33:33.133Z,97653.41
2022-12-19T19:35:36.903Z,97646.47
2022-12-19T19:37:40.249Z,97652.56
2022-12-19T19:39:44.946Z,97648.94
2022-12-19T19:41:47.615Z,97644.47
2022-12-19T19:43:50.249Z,97644.47
2022-12-19T19:45:53.030Z,97648.63
2022-12-19T19:47:56.228Z,97645.81
2022-12-19T19:49:59.244Z,97645.63
2022-12-19T19:52:03.247Z,97645.47
2022-12-19T19:54:06.315Z,97641.00
2022-12-19T19:56:10.793Z,97636.53
2022-12-19T19:58:13.585Z,97637.34
2022-12-19T20:00:16.977Z,97635.72
2022-12-19T20:02:19.962Z,97642.66
2022-12-19T20:04:23.044Z,97633.72
2022-12-19T20:06:25.823Z,97645.28
2022-12-19T20:08:33.666Z,97646.28
2022-12-19T20:10:41.753Z,97646.47
2022-12-19T20:12:46.686Z,97656.03
2022-12-19T20:14:49.620Z,97656.84
2022-12-19T20:16:52.408Z,97650.75
2022-12-19T20:18:55.220Z,97646.28
2022-12-19T20:20:57.983Z,97638.53
2022-12-19T20:23:05.051Z,97652.75
2022-12-19T20:25:08.173Z,97650.09
2022-12-19T20:27:11.327Z,97656.38
2022-12-19T20:29:15.529Z,97657.19
2022-12-19T20:31:19.263Z,97649.28
2022-12-19T20:33:22.194Z,97650.09
2022-12-19T20:35:46.013Z,97662.66
2022-12-19T20:37:48.857Z,97665.63
2022-12-19T20:39:51.933Z,97662.16
2022-12-19T20:41:54.665Z,97659.03
2022-12-19T20:43:58.134Z,97656.38
2022-12-19T20:46:07.652Z,97656.56
2022-12-19T20:48:11.571Z,97652.44
2022-12-19T20:50:16.044Z,97653.25
2022-12-19T20:52:18.763Z,97658.53
2022-12-19T20:54:21.587Z,97655.25
2022-12-19T20:56:25.798Z,97659.72
2022-12-19T20:58:30.152Z,97664.31
2022-12-19T21:00:32.889Z,97660.84
2022-12-19T21:03:00.559Z,97658.22
2022-12-19T21:05:00.100Z,97660.03
2022-12-19T21:07:03.347Z,97658.38
2022-12-19T21:09:06.465Z,97654.91
2022-12-19T21:11:11.415Z,97656.75
2022-12-19T21:13:14.743Z,97651.63
2022-12-19T21:15:17.794Z,97645.69
2022-12-19T21:17:20.643Z,97648.16
2022-12-19T21:19:24.730Z,97638.59
2022-12-19T21:21:28.172Z,97646.50
2022-12-19T21:23:30.997Z,97644.03
2022-12-19T21:25:34.581Z,97635.13
2022-12-19T21:27:37.308Z,97626.38
2022-12-19T21:29:39.942Z,97624.56
2022-12-19T21:31:44.211Z,97628.84
2022-12-19T21:33:48.121Z,97627.03
2022-12-19T21:35:52.483Z,97607.06
2022-12-19T21:37:55.320Z,97614.81
2022-12-19T21:39:58.452Z,97610.38
2022-12-19T21:42:01.123Z,97609.72
2022-12-19T21:44:03.891Z,97613.34
2022-12-19T21:46:09.739Z,97612.34
2022-12-19T21:48:12.900Z,97609.72
2022-12-19T21:50:16.616Z,97615.16
2022-12-19T21:52:20.673Z,97608.22
2022-12-19T21:54:23.319Z,97601.28
2022-12-19T21:56:28.233Z,97611.84
2022-12-19T21:58:32.302Z,97600.16
2022-12-19T22:00:35.059Z,97597.50
2022-12-19T22:02:38.248Z,97602.78
2022-12-19T22:04:42.108Z,97600.16
2022-12-19T22:06:44.712Z,97601.13
2022-12-19T22:08:49.284Z,97597.81
2022-12-19T22:10:52.342Z,97597.81
2022-12-19T22:12:54.953Z,97604.09
2022-12-19T22:14:57.697Z,97601.44
2022-12-19T22:17:00.451Z,97598.81
2022-12-19T22:19:03.566Z,97605.09
2022-12-19T22:21:07.609Z,97606.91
2022-12-19T22:23:13.382Z,97611.38
2022-12-19T22:25:17.906Z,97608.72
2022-12-19T22:27:20.673Z,97605.09
2022-12-19T22:29:23.533Z,97602.44
2022-12-19T22:31:29.547Z,97598.81
2022-12-19T22:33:33.504Z,97604.09
2022-12-19T22:35:36.173Z,97610.19
2022-12-19T22:37:38.890Z,97615.47
2022-12-19T22:39:42.136Z,97613.00
2022-12-19T22:41:49.616Z,97607.72
2022-12-19T22:43:53.299Z,97612.66
2022-12-19T22:45:56.081Z,97608.38
2022-12-19T22:47:58.934Z,97610.03
2022-12-19T22:50:01.630Z,97597.81
2022-12-19T22:52:04.925Z,97584.44
2022-12-19T22:54:08.136Z,97585.94
